createdAt,value
2022-12-06T00:03:41.862Z,2.5115
2022-12-06T00:08:42.829Z,2.52539
2022-12-06T00:13:43.756Z,2.49406
2022-12-06T00:18:45.025Z,2.39231
2022-12-06T00:23:45.915Z,2.34838
2022-12-06T00:28:51.794Z,2.29088
2022-12-06T00:33:52.681Z,2.24308
2022-12-06T00:38:53.615Z,2.2027
2022-12-06T00:43:54.540Z,2.13002
2022-12-06T00:48:55.437Z,2.09384
2022-12-06T00:53:56.316Z,2.19204
2022-12-06T00:58:57.248Z,2.34159
2022-12-06T01:03:58.178Z,2.34547
2022-12-06T01:08:59.316Z,2.34612
2022-12-06T01:14:00.211Z,2.214
2022-12-06T01:19:01.255Z,2.12421
2022-12-06T01:24:02.196Z,2.11516
2022-12-06T01:29:03.189Z,2.04442
2022-12-06T01:34:04.069Z,2.09998
2022-12-06T01:39:04.994Z,2.20205
2022-12-06T01:44:05.954Z,2.31737
2022-12-06T01:49:06.870Z,2.43171
2022-12-06T01:54:07.740Z,2.44819
2022-12-06T01:59:08.738Z,2.39844
2022-12-06T02:04:09.690Z,2.34902
2022-12-06T02:09:10.637Z,2.40135
2022-12-06T02:14:11.525Z,2.32092
2022-12-06T02:19:12.468Z,2.3739
2022-12-06T02:24:13.370Z,2.43559
2022-12-06T02:29:14.288Z,2.35742
2022-12-06T02:34:15.214Z,2.40103
2022-12-06T02:39:16.132Z,2.37486
2022-12-06T02:44:17.104Z,2.3852
2022-12-06T02:49:18.038Z,2.34612
2022-12-06T02:54:18.990Z,2.27182
2022-12-06T02:59:19.919Z,2.1662
2022-12-06T03:04:20.804Z,2.2589
2022-12-06T03:09:21.691Z,2.30251
2022-12-06T03:14:22.627Z,2.28442
2022-12-06T03:19:23.558Z,2.16911
2022-12-06T03:24:24.547Z,2.03764
2022-12-06T03:29:25.472Z,2.06025
2022-12-06T03:34:26.470Z,2.03861
2022-12-06T03:39:27.404Z,1.97433
2022-12-06T03:44:28.369Z,1.88356
2022-12-06T03:49:40.401Z,1.94494
2022-12-06T03:54:41.407Z,1.8419
2022-12-06T03:59:42.684Z,1.7928
2022-12-06T04:04:43.605Z,1.75113
2022-12-06T04:09:44.523Z,1.69654
2022-12-06T04:14:45.422Z,1.71947
2022-12-06T04:19:50.714Z,1.7676
2022-12-06T04:24:52.996Z,1.79312
2022-12-06T04:29:53.914Z,1.8813
2022-12-06T04:34:54.828Z,1.78731
2022-12-06T04:39:55.748Z,1.68007
2022-12-06T04:44:56.794Z,1.73562
2022-12-06T04:49:58.982Z,1.75953
2022-12-06T04:55:00.206Z,1.87452
2022-12-06T05:00:01.393Z,1.92975
2022-12-06T05:05:07.538Z,1.94623
2022-12-06T05:10:08.428Z,1.92523
2022-12-06T05:15:09.364Z,1.93621
2022-12-06T05:20:10.266Z,1.89745
2022-12-06T05:25:11.174Z,1.89648
2022-12-06T05:30:12.150Z,2.03764
2022-12-06T05:35:13.036Z,2.16523
2022-12-06T05:40:13.953Z,2.14649
2022-12-06T05:45:14.882Z,2.09029
2022-12-06T05:50:15.804Z,2.14036
2022-12-06T05:55:16.716Z,2.23015
2022-12-06T06:00:17.637Z,2.21013
2022-12-06T06:05:18.553Z,2.22951
2022-12-06T06:10:19.694Z,2.24178
2022-12-06T06:15:20.640Z,2.28281
2022-12-06T06:20:21.579Z,2.23888
2022-12-06T06:25:22.808Z,2.22079
2022-12-06T06:30:23.731Z,2.23791
2022-12-06T06:35:24.724Z,2.09901
2022-12-06T06:40:25.719Z,1.94752
2022-12-06T06:45:28.988Z,1.90036
2022-12-06T06:50:30.248Z,1.94913
2022-12-06T06:55:31.209Z,1.88163
2022-12-06T07:00:32.147Z,1.82251
2022-12-06T07:05:33.087Z,1.80604
2022-12-06T07:10:33.998Z,1.80184
2022-12-06T07:15:34.943Z,1.80378
2022-12-06T07:20:35.919Z,1.87387
2022-12-06T07:25:36.831Z,1.86095
2022-12-06T07:30:37.835Z,1.7999
2022-12-06T07:36:10.827Z,1.86612
2022-12-06T07:41:13.305Z,1.92879
2022-12-06T07:46:14.258Z,1.9824
2022-12-06T07:51:15.195Z,1.88615
2022-12-06T07:56:16.113Z,1.90004
2022-12-06T08:01:17.044Z,1.85482
2022-12-06T08:06:17.993Z,1.90844
2022-12-06T08:11:18.895Z,2.03699
2022-12-06T08:16:19.973Z,2.12162
2022-12-06T08:21:20.911Z,2.10676
2022-12-06T08:26:22.824Z,2.0231
2022-12-06T08:31:23.810Z,1.9543
2022-12-06T08:36:24.808Z,1.91619
2022-12-06T08:41:25.694Z,1.9824
2022-12-06T08:46:26.744Z,1.91716
2022-12-06T08:51:27.746Z,1.9346
2022-12-06T08:56:28.709Z,2.00728
2022-12-06T09:01:35.780Z,2.03473
2022-12-06T09:06:40.481Z,2.15166
2022-12-06T09:11:41.415Z,2.17169
2022-12-06T09:16:42.268Z,2.13164
2022-12-06T09:21:43.304Z,2.17944
2022-12-06T09:26:44.219Z,2.16588
2022-12-06T09:31:45.216Z,2.2098
2022-12-06T09:36:46.204Z,2.30671
2022-12-06T09:41:47.138Z,2.19818
2022-12-06T09:46:48.387Z,2.19301
2022-12-06T09:51:49.470Z,2.24824
2022-12-06T09:56:50.410Z,2.41007
2022-12-06T10:01:51.415Z,2.57642
2022-12-06T10:06:52.390Z,2.63554
2022-12-06T10:11:58.280Z,2.70789
2022-12-06T10:16:59.213Z,2.67204
2022-12-06T10:22:00.108Z,2.65718
2022-12-06T10:27:01.077Z,2.56576
2022-12-06T10:32:01.975Z,2.59936
2022-12-06T10:37:02.931Z,2.53766
2022-12-06T10:42:03.850Z,2.36905
2022-12-06T10:47:04.864Z,2.28991
2022-12-06T10:52:05.919Z,2.36065
2022-12-06T10:57:06.919Z,2.4989
2022-12-06T11:02:07.920Z,2.49373
2022-12-06T11:07:08.904Z,2.49083
2022-12-06T11:12:09.879Z,2.50084
2022-12-06T11:17:10.885Z,2.44463
2022-12-06T11:22:11.846Z,2.44948
2022-12-06T11:27:12.791Z,2.50795
2022-12-06T11:32:13.727Z,2.53669
2022-12-06T11:37:14.634Z,2.5606
2022-12-06T11:42:15.580Z,2.57901
2022-12-06T11:47:16.483Z,2.47887
2022-12-06T11:52:17.417Z,2.27376
2022-12-06T11:57:22.456Z,2.24954
2022-12-06T12:02:23.969Z,2.26342
2022-12-06T12:07:24.917Z,2.29928
2022-12-06T12:12:25.831Z,2.38617
2022-12-06T12:17:26.737Z,2.54961
2022-12-06T12:22:27.671Z,2.61325
2022-12-06T12:27:28.812Z,2.4666
2022-12-06T12:32:29.787Z,2.47177
2022-12-06T12:37:30.652Z,2.59484
2022-12-06T12:42:31.543Z,2.67204
2022-12-06T12:47:32.504Z,2.71112
2022-12-06T12:52:33.533Z,2.71047
2022-12-06T12:57:34.594Z,2.71209
2022-12-06T13:02:35.551Z,2.60937
2022-12-06T13:07:36.463Z,2.5648
2022-12-06T13:12:37.394Z,2.54961
2022-12-06T13:17:38.317Z,2.59096
2022-12-06T13:22:39.264Z,2.66881
2022-12-06T13:27:40.148Z,2.68948
2022-12-06T13:32:41.037Z,2.68011
2022-12-06T13:37:41.943Z,2.71564
2022-12-06T13:42:42.857Z,2.61357
2022-12-06T13:47:43.858Z,2.36324
2022-12-06T13:52:44.751Z,2.26149
2022-12-06T13:57:45.658Z,2.17492
2022-12-06T14:02:46.699Z,2.1578
2022-12-06T14:07:47.847Z,2.23532
2022-12-06T14:12:49.091Z,2.2715
2022-12-06T14:18:03.361Z,2.34385
2022-12-06T14:23:06.638Z,2.42202
2022-12-06T14:28:07.633Z,2.43527
2022-12-06T14:33:08.542Z,2.42945
2022-12-06T14:38:09.525Z,2.37293
2022-12-06T14:43:10.439Z,2.40006
2022-12-06T14:48:11.370Z,2.35484
2022-12-06T14:53:12.277Z,2.36873
2022-12-06T14:58:13.172Z,2.2715
2022-12-06T15:03:14.655Z,2.18396
2022-12-06T15:08:15.823Z,2.16038
2022-12-06T15:13:16.806Z,2.10967
2022-12-06T15:18:17.798Z,2.08254
2022-12-06T15:23:18.724Z,1.99694
2022-12-06T15:28:19.902Z,1.90747
2022-12-06T15:33:21.051Z,1.9065
2022-12-06T15:38:21.938Z,1.89551
2022-12-06T15:43:22.859Z,1.87484
2022-12-06T15:48:23.841Z,1.85191
2022-12-06T15:53:24.789Z,1.74532
2022-12-06T15:58:25.709Z,1.76179
2022-12-06T16:03:26.746Z,1.7311
2022-12-06T16:08:27.841Z,1.78149
2022-12-06T16:13:28.804Z,1.79215
2022-12-06T16:18:29.754Z,1.85708
2022-12-06T16:23:49.398Z,1.80152
2022-12-06T16:29:12.075Z,1.87194
2022-12-06T16:34:12.975Z,1.88938
2022-12-06T16:39:14.050Z,1.90101
2022-12-06T16:44:15.024Z,1.80669
2022-12-06T16:49:44.635Z,1.922
2022-12-06T16:54:47.060Z,2.04345
2022-12-06T16:59:48.153Z,2.00049
2022-12-06T17:04:49.692Z,2.00857
2022-12-06T17:09:50.756Z,2.04636
2022-12-06T17:14:51.738Z,2.06445
2022-12-06T17:19:52.650Z,2.1297
2022-12-06T17:24:53.569Z,2.20561
2022-12-06T17:29:54.455Z,2.162
2022-12-06T17:34:55.353Z,2.141
2022-12-06T17:39:56.276Z,2.162
2022-12-06T17:44:57.187Z,2.22531
2022-12-06T17:49:58.324Z,2.24631
2022-12-06T17:54:59.678Z,2.23597
2022-12-06T18:00:00.889Z,2.27538
2022-12-06T18:05:02.054Z,2.22854
2022-12-06T18:10:03.081Z,2.32415
2022-12-06T18:15:04.333Z,2.36808
2022-12-06T18:20:05.438Z,2.37422
2022-12-06T18:25:06.360Z,2.38132
2022-12-06T18:30:07.278Z,2.40297
2022-12-06T18:35:08.165Z,2.45303
2022-12-06T18:40:09.098Z,2.51473
2022-12-06T18:45:10.023Z,2.59128
2022-12-06T18:50:10.961Z,2.65136
2022-12-06T18:55:11.866Z,2.67591
2022-12-06T19:00:12.798Z,2.7515
2022-12-06T19:05:19.764Z,2.77249
2022-12-06T19:10:28.725Z,2.83387
2022-12-06T19:15:29.658Z,2.89944
2022-12-06T19:20:30.566Z,2.85841
2022-12-06T19:25:31.485Z,2.79769
2022-12-06T19:30:32.530Z,2.69852
2022-12-06T19:35:33.489Z,2.61099
2022-12-06T19:40:34.383Z,2.66138
2022-12-06T19:45:35.308Z,2.6743
2022-12-06T19:50:36.262Z,2.59774
2022-12-06T19:55:37.215Z,2.72921
2022-12-06T20:00:38.119Z,2.72824
2022-12-06T20:05:39.057Z,2.72436
2022-12-06T20:10:39.979Z,2.70595
2022-12-06T20:15:40.941Z,2.63554
2022-12-06T20:20:41.894Z,2.69206
2022-12-06T20:25:42.862Z,2.72598
2022-12-06T20:30:43.868Z,2.76506
2022-12-06T20:35:44.815Z,2.76474
2022-12-06T20:40:45.732Z,2.69755
2022-12-06T20:45:46.692Z,2.72178
2022-12-06T20:50:47.619Z,2.76216
2022-12-06T20:55:48.896Z,2.86811
2022-12-06T21:00:49.900Z,2.88781
2022-12-06T21:05:55.298Z,2.90977
2022-12-06T21:11:21.499Z,2.89298
2022-12-06T21:16:24.086Z,2.88296
2022-12-06T21:21:25.097Z,2.84388
2022-12-06T21:26:26.033Z,2.87844
2022-12-06T21:31:27.134Z,2.87553
2022-12-06T21:36:28.174Z,2.90008
2022-12-06T21:41:29.104Z,2.8694
2022-12-06T21:46:30.164Z,2.79769
2022-12-06T21:51:31.206Z,2.66331
2022-12-06T21:56:32.142Z,2.68237
2022-12-06T22:01:33.100Z,2.73082
2022-12-06T22:06:34.123Z,2.70014
2022-12-06T22:11:35.054Z,2.64716
2022-12-06T22:16:36.076Z,2.64232
2022-12-06T22:21:37.092Z,2.60517
2022-12-06T22:26:38.052Z,2.55543
2022-12-06T22:31:39.145Z,2.60356
2022-12-06T22:36:40.116Z,2.62585
2022-12-06T22:41:41.161Z,2.59387
2022-12-06T22:46:42.116Z,2.54768
2022-12-06T22:51:43.156Z,2.41686
2022-12-06T22:56:44.151Z,2.40038
2022-12-06T23:01:45.117Z,2.42073
2022-12-06T23:06:46.133Z,2.32577
2022-12-06T23:11:47.049Z,2.32189
2022-12-06T23:16:48.018Z,2.34741
2022-12-06T23:21:49.194Z,2.36388
2022-12-06T23:26:56.098Z,2.35355
2022-12-06T23:31:58.883Z,2.28313
2022-12-06T23:36:59.829Z,2.29282
2022-12-06T23:42:00.789Z,2.02569
2022-12-06T23:47:01.712Z,2.0034
2022-12-06T23:52:02.661Z,2.01697
2022-12-06T23:57:03.530Z,2.03376
